createdAt,value
2023-02-06T00:02:21.061Z,51.58
2023-02-06T00:05:23.469Z,51.74
2023-02-06T00:08:26.813Z,52.44
2023-02-06T00:11:29.303Z,51.33
2023-02-06T00:14:32.678Z,52.28
2023-02-06T00:17:36.667Z,51.62
2023-02-06T00:20:39.178Z,50.64
2023-02-06T00:23:41.768Z,51.08
2023-02-06T00:26:44.135Z,51.42
2023-02-06T00:29:46.475Z,50.89
2023-02-06T00:32:49.246Z,50.24
2023-02-06T00:35:51.544Z,49.88
2023-02-06T00:38:53.922Z,49.20
2023-02-06T00:41:56.280Z,48.88
2023-02-06T00:44:58.608Z,49.72
2023-02-06T00:48:01.244Z,50.15
2023-02-06T00:51:03.663Z,49.92
2023-02-06T00:54:07.252Z,50.51
2023-02-06T00:57:09.553Z,50.60
2023-02-06T01:00:12.442Z,48.75
2023-02-06T01:03:14.790Z,50.17
2023-02-06T01:06:17.976Z,50.81
2023-02-06T01:09:20.236Z,51.90
2023-02-06T01:12:22.755Z,52.12
2023-02-06T01:15:25.501Z,52.17
2023-02-06T01:18:27.868Z,53.50
2023-02-06T01:21:30.143Z,52.74
2023-02-06T01:24:33.591Z,52.61
2023-02-06T01:27:37.666Z,52.64
2023-02-06T01:30:40.115Z,53.28
2023-02-06T01:33:42.809Z,53.55
2023-02-06T01:36:45.637Z,53.48
2023-02-06T01:39:47.956Z,53.41
2023-02-06T01:42:50.328Z,53.23
2023-02-06T01:45:53.182Z,53.36
2023-02-06T01:48:56.094Z,54.39
2023-02-06T01:52:05.805Z,55.13
2023-02-06T01:55:08.208Z,53.59
2023-02-06T01:58:11.932Z,52.06
2023-02-06T02:01:14.658Z,51.24
2023-02-06T02:04:19.990Z,52.62
2023-02-06T02:07:27.983Z,50.82
2023-02-06T02:10:31.051Z,51.77
2023-02-06T02:13:34.386Z,50.62
2023-02-06T02:16:36.888Z,51.92
2023-02-06T02:20:18.445Z,51.44
2023-02-06T02:23:34.966Z,51.22
2023-02-06T02:26:55.534Z,51.89
2023-02-06T02:30:03.695Z,51.20
2023-02-06T02:33:30.848Z,52.29
2023-02-06T02:36:39.415Z,51.56
2023-02-06T02:39:46.739Z,50.86
2023-02-06T02:43:16.471Z,51.01
2023-02-06T02:46:19.159Z,51.97
2023-02-06T02:49:27.225Z,52.65
2023-02-06T02:52:30.166Z,52.34
2023-02-06T02:55:32.643Z,52.00
2023-02-06T02:58:37.844Z,52.30
2023-02-06T03:01:48.530Z,52.73
2023-02-06T03:04:54.841Z,52.85
2023-02-06T03:08:22.723Z,53.31
2023-02-06T03:11:25.587Z,52.86
2023-02-06T03:14:44.666Z,53.50
2023-02-06T03:17:51.925Z,52.94
2023-02-06T03:20:54.416Z,54.20
2023-02-06T03:23:59.893Z,53.90
2023-02-06T03:27:05.340Z,53.64
2023-02-06T03:30:10.439Z,52.73
2023-02-06T03:33:14.749Z,51.67
2023-02-06T03:36:18.504Z,51.67
2023-02-06T03:39:21.371Z,52.14
2023-02-06T03:42:25.094Z,52.92
2023-02-06T03:45:33.492Z,52.03
2023-02-06T03:48:44.873Z,51.37
2023-02-06T03:52:13.576Z,50.88
2023-02-06T03:55:22.333Z,51.86
2023-02-06T03:58:24.851Z,51.61
2023-02-06T04:01:27.691Z,52.18
2023-02-06T04:04:35.255Z,50.53
2023-02-06T04:07:37.643Z,50.95
2023-02-06T04:10:39.955Z,51.65
2023-02-06T04:13:42.237Z,50.32
2023-02-06T04:16:44.606Z,50.66
2023-02-06T04:19:46.935Z,51.56
2023-02-06T04:22:49.296Z,50.76
2023-02-06T04:25:51.671Z,51.22
2023-02-06T04:28:54.022Z,51.35
2023-02-06T04:32:02.078Z,52.36
2023-02-06T04:35:04.787Z,52.27
2023-02-06T04:38:07.064Z,52.18
2023-02-06T04:41:10.273Z,52.14
2023-02-06T04:44:12.682Z,52.85
2023-02-06T04:47:15.066Z,52.95
2023-02-06T04:50:18.022Z,54.13
2023-02-06T04:53:20.392Z,54.34
2023-02-06T04:56:22.678Z,53.40
2023-02-06T04:59:24.998Z,54.45
2023-02-06T05:02:27.456Z,54.81
2023-02-06T05:05:29.879Z,54.19
2023-02-06T05:08:32.256Z,54.58
2023-02-06T05:11:34.725Z,53.99
2023-02-06T05:14:37.336Z,55.36
2023-02-06T05:17:39.816Z,54.53
2023-02-06T05:20:42.956Z,54.80
2023-02-06T05:23:45.265Z,54.10
2023-02-06T05:26:47.577Z,53.35
2023-02-06T05:29:49.972Z,54.38
2023-02-06T05:32:52.429Z,54.05
2023-02-06T05:35:54.986Z,54.50
2023-02-06T05:38:57.382Z,53.07
2023-02-06T05:41:59.704Z,53.03
2023-02-06T05:45:02.276Z,51.79
2023-02-06T05:48:04.872Z,53.55
2023-02-06T05:51:07.218Z,53.12
2023-02-06T05:54:09.538Z,51.94
2023-02-06T05:57:11.874Z,52.23
2023-02-06T06:00:14.846Z,53.04
2023-02-06T06:03:19.261Z,51.28
2023-02-06T06:06:21.594Z,50.80
2023-02-06T06:09:24.030Z,51.51
2023-02-06T06:12:26.437Z,52.16
2023-02-06T06:15:29.199Z,51.28
2023-02-06T06:18:32.914Z,50.19
2023-02-06T06:21:35.791Z,49.57
2023-02-06T06:24:49.865Z,49.72
2023-02-06T06:27:52.494Z,49.37
2023-02-06T06:31:02.841Z,48.50
2023-02-06T06:34:05.424Z,47.88
2023-02-06T06:37:07.738Z,47.57
2023-02-06T06:43:42.649Z,48.20
2023-02-06T06:46:45.020Z,48.55
2023-02-06T06:49:47.543Z,47.78
2023-02-06T06:52:49.819Z,47.76
2023-02-06T06:55:52.238Z,47.61
2023-02-06T06:58:55.504Z,47.97
2023-02-06T07:01:57.877Z,47.73
2023-02-06T07:05:00.587Z,45.71
2023-02-06T07:08:03.003Z,46.18
2023-02-06T07:11:05.479Z,46.08
2023-02-06T07:14:07.841Z,46.20
2023-02-06T07:17:10.212Z,46.79
2023-02-06T07:20:12.604Z,45.86
2023-02-06T07:23:14.963Z,46.07
2023-02-06T07:26:17.374Z,45.55
2023-02-06T07:29:19.800Z,46.03
2023-02-06T07:32:22.323Z,46.79
2023-02-06T07:35:24.801Z,45.42
2023-02-06T07:38:27.244Z,45.58
2023-02-06T07:41:29.729Z,45.41
2023-02-06T07:44:32.122Z,44.94
2023-02-06T07:47:34.349Z,44.32
2023-02-06T07:50:37.040Z,44.24
2023-02-06T07:53:39.306Z,44.26
2023-02-06T07:56:41.952Z,43.11
2023-02-06T07:59:44.291Z,42.35
2023-02-06T08:02:46.595Z,42.20
2023-02-06T08:05:48.919Z,41.66
2023-02-06T08:08:51.923Z,40.87
2023-02-06T08:11:55.536Z,39.29
2023-02-06T08:14:58.170Z,39.01
2023-02-06T08:18:00.538Z,38.72
2023-02-06T08:21:07.903Z,39.71
2023-02-06T08:24:12.266Z,38.30
2023-02-06T08:27:15.355Z,38.55
2023-02-06T08:30:17.846Z,37.99
2023-02-06T08:33:22.046Z,37.75
2023-02-06T08:36:24.922Z,37.92
2023-02-06T08:39:28.247Z,37.43
2023-02-06T08:42:32.708Z,36.84
2023-02-06T08:45:36.677Z,37.45
2023-02-06T08:48:39.166Z,37.05
2023-02-06T08:51:41.719Z,37.14
2023-02-06T08:54:44.013Z,36.69
2023-02-06T08:57:46.287Z,37.68
2023-02-06T09:00:48.556Z,37.80
2023-02-06T09:03:54.779Z,38.47
2023-02-06T09:06:57.680Z,36.79
2023-02-06T09:10:00.673Z,37.84
2023-02-06T09:13:03.512Z,39.57
2023-02-06T09:16:06.776Z,37.55
2023-02-06T09:19:10.632Z,38.78
2023-02-06T09:22:13.010Z,38.44
2023-02-06T09:25:15.346Z,36.96
2023-02-06T09:28:18.042Z,37.58
2023-02-06T09:31:20.977Z,35.55
2023-02-06T09:34:24.441Z,35.45
2023-02-06T09:37:26.727Z,35.02
2023-02-06T09:40:29.748Z,36.48
2023-02-06T09:43:33.225Z,36.35
2023-02-06T09:46:47.906Z,34.65
2023-02-06T09:50:15.678Z,34.92
2023-02-06T09:53:41.224Z,32.64
2023-02-06T09:56:55.305Z,34.09
2023-02-06T10:00:04.341Z,33.50
2023-02-06T10:03:33.875Z,34.85
2023-02-06T10:06:54.533Z,33.79
2023-02-06T10:10:03.465Z,34.84
2023-02-06T10:13:30.337Z,33.29
2023-02-06T10:16:48.399Z,33.73
2023-02-06T10:20:07.095Z,34.00
2023-02-06T10:23:21.626Z,33.95
2023-02-06T10:26:27.423Z,34.57
2023-02-06T10:29:34.773Z,33.20
2023-02-06T10:33:20.300Z,33.40
2023-02-06T10:36:54.506Z,33.47
2023-02-06T10:40:23.333Z,32.14
2023-02-06T10:43:34.190Z,32.72
2023-02-06T10:46:48.949Z,31.33
2023-02-06T10:53:51.191Z,31.52
2023-02-06T10:56:56.255Z,31.61
2023-02-06T11:00:02.955Z,32.48
2023-02-06T11:03:08.602Z,32.63
2023-02-06T11:06:21.370Z,31.69
2023-02-06T11:09:26.294Z,31.86
2023-02-06T11:12:50.711Z,31.59
2023-02-06T11:17:05.245Z,31.76
2023-02-06T11:20:25.756Z,33.01
2023-02-06T11:23:32.735Z,33.84
2023-02-06T11:26:54.845Z,31.15
2023-02-06T11:31:12.704Z,32.52
2023-02-06T11:34:32.204Z,32.56
2023-02-06T11:37:46.359Z,32.29
2023-02-06T11:41:22.195Z,33.07
2023-02-06T11:44:30.534Z,32.34
2023-02-06T11:48:05.661Z,31.80
2023-02-06T11:51:48.729Z,32.95
2023-02-06T12:05:09.009Z,32.67
2023-02-06T12:08:14.294Z,33.93
2023-02-06T12:11:23.699Z,33.18
2023-02-06T12:14:40.182Z,32.35
2023-02-06T12:18:03.181Z,32.76
2023-02-06T12:21:24.393Z,31.35
2023-02-06T12:24:45.436Z,32.42
2023-02-06T12:28:17.006Z,33.11
2023-02-06T12:31:54.179Z,33.18
2023-02-06T12:35:28.115Z,32.26
2023-02-06T12:38:56.242Z,34.00
2023-02-06T12:42:39.837Z,34.23
2023-02-06T12:46:01.867Z,34.26
2023-02-06T12:49:24.751Z,35.46
2023-02-06T12:52:44.458Z,34.56
2023-02-06T12:56:05.114Z,33.17
2023-02-06T12:59:58.944Z,33.38
2023-02-06T13:03:24.605Z,33.45
2023-02-06T13:06:57.945Z,33.63
2023-02-06T13:10:02.577Z,31.97
2023-02-06T13:13:07.196Z,33.57
2023-02-06T13:16:10.360Z,33.89
2023-02-06T13:19:52.979Z,33.37
2023-02-06T13:23:14.713Z,33.47
2023-02-06T13:26:18.100Z,33.73
2023-02-06T13:29:41.680Z,33.39
2023-02-06T13:32:47.129Z,33.85
2023-02-06T13:36:10.160Z,34.35
2023-02-06T13:39:27.485Z,34.79
2023-02-06T13:42:59.113Z,35.54
2023-02-06T13:46:11.258Z,36.04
2023-02-06T13:49:45.774Z,33.62
2023-02-06T13:52:48.201Z,35.00
2023-02-06T13:56:08.494Z,34.88
2023-02-06T13:59:21.848Z,36.87
2023-02-06T14:02:47.338Z,35.26
2023-02-06T14:06:22.678Z,36.53
2023-02-06T14:10:19.434Z,36.01
2023-02-06T14:13:30.885Z,37.46
2023-02-06T14:16:58.002Z,36.36
2023-02-06T14:20:20.910Z,38.83
2023-02-06T14:23:59.164Z,38.49
2023-02-06T14:27:24.983Z,37.77
2023-02-06T14:30:45.212Z,37.52
2023-02-06T14:33:54.267Z,36.44
2023-02-06T14:37:07.074Z,37.39
2023-02-06T14:40:21.005Z,37.88
2023-02-06T14:43:27.860Z,36.67
2023-02-06T14:46:31.453Z,38.00
2023-02-06T14:49:35.965Z,36.65
2023-02-06T14:52:38.868Z,37.99
2023-02-06T14:55:53.498Z,36.96
2023-02-06T14:58:56.325Z,38.54
2023-02-06T15:01:59.904Z,37.05
2023-02-06T15:05:03.729Z,37.79
2023-02-06T15:08:07.096Z,37.47
2023-02-06T15:11:20.668Z,37.37
2023-02-06T15:14:38.129Z,38.96
2023-02-06T15:17:42.210Z,38.33
2023-02-06T15:20:47.132Z,38.00
2023-02-06T15:24:55.682Z,39.61
2023-02-06T15:32:39.277Z,38.93
2023-02-06T15:36:55.477Z,39.96
2023-02-06T15:40:06.588Z,39.68
2023-02-06T15:43:20.095Z,39.98
2023-02-06T15:46:22.953Z,40.60
2023-02-06T15:50:00.400Z,40.47
2023-02-06T15:53:17.498Z,40.14
2023-02-06T15:56:31.996Z,41.50
2023-02-06T15:59:41.736Z,40.86
2023-02-06T16:02:44.302Z,41.37
2023-02-06T16:05:46.819Z,41.05
2023-02-06T16:09:07.704Z,42.75
2023-02-06T16:12:10.298Z,41.50
2023-02-06T16:15:32.662Z,42.40
2023-02-06T16:18:37.620Z,41.10
2023-02-06T16:21:43.568Z,40.28
2023-02-06T16:24:45.965Z,40.85
2023-02-06T16:27:50.866Z,40.55
2023-02-06T16:31:01.957Z,42.42
2023-02-06T16:34:30.872Z,41.63
2023-02-06T16:37:33.201Z,43.30
2023-02-06T16:40:35.827Z,43.58
2023-02-06T16:43:38.344Z,43.21
2023-02-06T16:46:42.091Z,45.99
2023-02-06T16:49:48.081Z,44.53
2023-02-06T16:52:57.375Z,43.28
2023-02-06T16:56:00.415Z,45.27
2023-02-06T16:59:03.315Z,44.77
2023-02-06T17:02:11.959Z,44.23
2023-02-06T17:05:15.627Z,45.26
2023-02-06T17:08:22.671Z,45.21
2023-02-06T17:11:25.206Z,44.79
2023-02-06T17:14:27.546Z,47.14
2023-02-06T17:17:30.072Z,45.92
2023-02-06T17:20:35.906Z,46.73
2023-02-06T17:23:38.619Z,46.11
2023-02-06T17:26:40.976Z,46.10
2023-02-06T17:29:45.022Z,45.87
2023-02-06T17:32:49.343Z,45.77
2023-02-06T17:35:51.744Z,47.27
2023-02-06T17:38:54.098Z,47.85
2023-02-06T17:41:56.481Z,46.21
2023-02-06T17:44:59.106Z,46.63
2023-02-06T17:48:01.414Z,47.72
2023-02-06T17:51:05.486Z,46.01
2023-02-06T17:54:08.736Z,45.66
2023-02-06T17:57:13.364Z,46.76
2023-02-06T18:00:17.671Z,46.58
2023-02-06T18:03:20.884Z,45.93
2023-02-06T18:06:23.680Z,46.16
2023-02-06T18:09:26.126Z,46.53
2023-02-06T18:12:28.522Z,46.85
2023-02-06T18:15:31.997Z,47.31
2023-02-06T18:18:34.275Z,46.94
2023-02-06T18:21:36.709Z,47.65
2023-02-06T18:24:39.564Z,47.01
2023-02-06T18:27:42.845Z,47.75
2023-02-06T18:30:45.255Z,46.90
2023-02-06T18:33:47.679Z,47.36
2023-02-06T18:36:50.417Z,48.98
2023-02-06T18:39:55.103Z,48.00
2023-02-06T18:42:57.628Z,49.13
2023-02-06T18:46:07.092Z,48.89
2023-02-06T18:49:11.039Z,47.52
2023-02-06T18:52:13.978Z,48.48
2023-02-06T18:55:16.434Z,48.43
2023-02-06T18:58:18.771Z,47.41
2023-02-06T19:01:23.533Z,48.48
2023-02-06T19:04:26.773Z,48.62
2023-02-06T19:07:29.184Z,48.69
2023-02-06T19:10:31.904Z,48.10
2023-02-06T19:13:34.566Z,47.70
2023-02-06T19:16:40.963Z,46.84
2023-02-06T19:19:43.293Z,47.81
2023-02-06T19:22:46.382Z,47.09
2023-02-06T19:25:48.692Z,47.62
2023-02-06T19:28:52.263Z,47.84
2023-02-06T19:31:56.160Z,47.59
2023-02-06T19:34:58.616Z,45.95
2023-02-06T19:38:02.580Z,46.76
2023-02-06T19:41:09.464Z,47.09
2023-02-06T19:44:14.044Z,46.84
2023-02-06T19:47:16.446Z,47.34
2023-02-06T19:50:19.194Z,47.76
2023-02-06T19:53:21.835Z,47.36
2023-02-06T19:56:26.863Z,47.62
2023-02-06T19:59:29.774Z,48.81
2023-02-06T20:02:32.119Z,47.62
2023-02-06T20:05:35.914Z,49.01
2023-02-06T20:08:39.846Z,49.47
2023-02-06T20:11:42.898Z,50.70
2023-02-06T20:14:45.283Z,50.25
2023-02-06T20:17:47.692Z,50.31
2023-02-06T20:20:50.041Z,50.31
2023-02-06T20:23:53.064Z,50.50
2023-02-06T20:26:58.528Z,50.51
2023-02-06T20:30:00.957Z,49.39
2023-02-06T20:33:03.367Z,49.95
2023-02-06T20:36:10.768Z,50.57
2023-02-06T20:39:14.419Z,52.29
2023-02-06T20:42:16.932Z,50.78
2023-02-06T20:45:19.330Z,50.95
2023-02-06T20:48:21.713Z,50.36
2023-02-06T20:51:24.558Z,51.27
2023-02-06T20:54:27.208Z,50.62
2023-02-06T20:57:30.470Z,50.75
2023-02-06T21:00:34.529Z,51.24
2023-02-06T21:03:38.969Z,51.55
2023-02-06T21:06:43.223Z,51.04
2023-02-06T21:09:45.600Z,51.44
2023-02-06T21:12:47.918Z,52.51
2023-02-06T21:15:54.774Z,51.74
2023-02-06T21:18:58.046Z,52.59
2023-02-06T21:22:00.865Z,51.71
2023-02-06T21:25:03.441Z,52.63
2023-02-06T21:28:06.045Z,53.27
2023-02-06T21:31:20.638Z,52.31
2023-02-06T21:34:25.585Z,53.30
2023-02-06T21:37:28.719Z,54.18
2023-02-06T21:40:31.034Z,53.48
2023-02-06T21:43:33.847Z,53.54
2023-02-06T21:46:36.322Z,52.43
2023-02-06T21:49:38.721Z,53.42
2023-02-06T21:52:41.091Z,52.51
2023-02-06T21:55:44.763Z,52.81
2023-02-06T21:58:47.645Z,53.70
2023-02-06T22:01:49.977Z,53.42
2023-02-06T22:04:52.321Z,52.87
2023-02-06T22:07:54.694Z,53.63
2023-02-06T22:10:57.036Z,53.71
2023-02-06T22:14:02.139Z,53.20
2023-02-06T22:17:04.456Z,54.46
2023-02-06T22:20:07.097Z,52.86
2023-02-06T22:23:09.400Z,53.99
2023-02-06T22:26:14.208Z,54.98
2023-02-06T22:29:17.861Z,53.97
2023-02-06T22:32:20.123Z,54.15
2023-02-06T22:35:22.507Z,55.50
2023-02-06T22:38:24.840Z,56.26
2023-02-06T22:41:28.084Z,54.94
2023-02-06T22:44:30.461Z,55.13
2023-02-06T22:47:33.270Z,54.33
2023-02-06T22:50:36.530Z,54.53
2023-02-06T22:53:39.577Z,55.14
2023-02-06T22:56:43.576Z,54.66
2023-02-06T22:59:45.894Z,56.17
2023-02-06T23:02:48.430Z,54.58
2023-02-06T23:05:50.729Z,55.18
2023-02-06T23:08:53.749Z,55.93
2023-02-06T23:11:58.530Z,57.19
2023-02-06T23:15:00.875Z,56.72
2023-02-06T23:18:03.240Z,57.10
2023-02-06T23:21:08.633Z,56.34
2023-02-06T23:24:12.090Z,56.63
2023-02-06T23:27:14.681Z,56.39
2023-02-06T23:30:17.002Z,55.47
2023-02-06T23:33:19.623Z,55.45
2023-02-06T23:36:23.857Z,55.28
2023-02-06T23:39:26.267Z,55.63
2023-02-06T23:42:29.337Z,56.58
2023-02-06T23:45:32.044Z,55.40
2023-02-06T23:48:35.084Z,55.08
2023-02-06T23:51:38.186Z,55.99
2023-02-06T23:54:40.570Z,55.90
2023-02-06T23:57:42.911Z,55.76
